Wetterdaten: aktuell Dienstag, 05.05.2026 12:55
Datum Zeit Temp. A. Feuchte A. Luftdruck Regen Wind Richtung Richtung Taupunkt Windchill Windböen
05.05.2026 12:55 22,3 °C 40 % 1005,2 hPa 0,0 l/m² 3,4 km/h (1 Bft) W 260 ° 8,0 °C 22,3 °C 10,6 km/h (2 Bft)
05.05.2026 11:55 20,1 °C 48 % 1006,1 hPa 0,0 l/m² 4,5 km/h (1 Bft) O-SO 119 ° 8,7 °C 20,1 °C 12,3 km/h (3 Bft)
05.05.2026 10:55 17,6 °C 66 % 1006,9 hPa 0,0 l/m² 0,0 km/h (0 Bft) NO 51 ° 11,2 °C 17,6 °C 0,0 km/h (0 Bft)
05.05.2026 09:55 16,2 °C 72 % 1007,2 hPa 0,0 l/m² 0,0 km/h (0 Bft) N-NO 19 ° 11,1 °C 16,2 °C 0,0 km/h (0 Bft)
05.05.2026 08:55 14,3 °C 75 % 1007,5 hPa 0,0 l/m² 0,0 km/h (0 Bft) N-NO 28 ° 9,9 °C 14,3 °C 0,0 km/h (0 Bft)
05.05.2026 07:55 13,0 °C 74 % 1007,7 hPa 0,0 l/m² 0,0 km/h (0 Bft) N 349 ° 8,5 °C 13,0 °C 0,0 km/h (0 Bft)
05.05.2026 06:55 11,4 °C 79 % 1007,9 hPa 0,0 l/m² 0,0 km/h (0 Bft) W 280 ° 7,9 °C 11,4 °C 0,0 km/h (0 Bft)
05.05.2026 05:55 9,1 °C 80 % 1007,8 hPa 0,0 l/m² 0,0 km/h (0 Bft) W 280 ° 5,8 °C 9,1 °C 0,0 km/h (0 Bft)
05.05.2026 04:55 10,4 °C 79 % 1008,1 hPa 0,0 l/m² 0,0 km/h (0 Bft) W 280 ° 6,9 °C 10,4 °C 0,0 km/h (0 Bft)
05.05.2026 03:55 12,3 °C 76 % 1008,3 hPa 0,0 l/m² 0,0 km/h (0 Bft) NW 319 ° 8,2 °C 12,3 °C 0,0 km/h (0 Bft)
05.05.2026 02:55 12,6 °C 76 % 1008,7 hPa 0,0 l/m² 0,0 km/h (0 Bft) NW 319 ° 8,5 °C 12,6 °C 0,0 km/h (0 Bft)
05.05.2026 01:55 13,8 °C 73 % 1009,4 hPa 0,0 l/m² 0,0 km/h (0 Bft) NW 317 ° 9,0 °C 13,8 °C 0,0 km/h (0 Bft)
05.05.2026 00:55 14,1 °C 72 % 1009,7 hPa 0,0 l/m² 0,0 km/h (0 Bft) N-NO 18 ° 9,1 °C 14,1 °C 0,0 km/h (0 Bft)
04.05.2026 23:55 14,6 °C 68 % 1010,0 hPa 0,0 l/m² 0,0 km/h (0 Bft) NO 36 ° 8,8 °C 14,6 °C 0,0 km/h (0 Bft)
04.05.2026 22:55 13,6 °C 71 % 1009,5 hPa 0,0 l/m² 0,0 km/h (0 Bft) W-SW 258 ° 8,4 °C 13,6 °C 0,0 km/h (0 Bft)
04.05.2026 21:55 15,3 °C 64 % 1009,1 hPa 0,0 l/m² 0,0 km/h (0 Bft) W-SW 254 ° 8,5 °C 15,3 °C 0,0 km/h (0 Bft)
04.05.2026 20:55 16,9 °C 63 % 1008,8 hPa 0,0 l/m² 0,0 km/h (0 Bft) S-SO 147 ° 9,8 °C 16,9 °C 0,0 km/h (0 Bft)
04.05.2026 19:55 19,4 °C 56 % 1008,7 hPa 0,0 l/m² 0,0 km/h (0 Bft) SO 127 ° 10,4 °C 19,4 °C 0,0 km/h (0 Bft)
04.05.2026 18:55 21,3 °C 48 % 1008,6 hPa 0,0 l/m² 0,0 km/h (0 Bft) S-SO 148 ° 9,8 °C 21,3 °C 0,0 km/h (0 Bft)
04.05.2026 17:55 22,0 °C 47 % 1008,7 hPa 0,0 l/m² 0,0 km/h (0 Bft) S 176 ° 10,2 °C 22,0 °C 1,8 km/h (1 Bft)
04.05.2026 16:55 23,4 °C 48 % 1008,7 hPa 0,0 l/m² 6,8 km/h (2 Bft) SO 134 ° 11,8 °C 23,4 °C 15,8 km/h (3 Bft)
04.05.2026 15:55 22,9 °C 46 % 1009,1 hPa 0,0 l/m² 1,7 km/h (1 Bft) S-SO 165 ° 10,7 °C 22,9 °C 7,0 km/h (2 Bft)
04.05.2026 14:55 22,4 °C 43 % 1009,8 hPa 0,0 l/m² 3,4 km/h (1 Bft) S 169 ° 9,2 °C 22,4 °C 14,1 km/h (3 Bft)
04.05.2026 13:55 22,1 °C 51 % 1010,5 hPa 0,0 l/m² 3,1 km/h (1 Bft) S-SO 147 ° 11,5 °C 22,1 °C 15,8 km/h (3 Bft)
04.05.2026 13:00 20,9 °C 52 % 1011,4 hPa 0,0 l/m² 2,0 km/h (1 Bft) S-SO 147 ° 10,7 °C 20,9 °C 10,6 km/h (2 Bft)
_ Min-Zeit 05:40 12:25 12:55 - 16:30 - - 05:40 05:40 16:30
Minimum _ 8,8 °C 40 % 1005,2 hPa - 0,0 km/h (0 Bft) - - 5,5 °C 8,8 °C 0,0 km/h (0 Bft)
_ Max-Zeit 16:10 05:10 13:00 13:00 16:00 - - 19:05 16:10 13:20
Maximum _ 24,1 °C 80 % 1011,4 hPa 0,0 l/m² 10,4 km/h
S-SO (2 Bft)
- - 12,8 °C 24,1 °C 24,6 km/h
S-SO (4 Bft)
Durchschnitt _ 17,1 °C 62 % 1008,8 hPa #0,0 l/m² 1,3 km/h (1 Bft) S-SO - 9,4 °C 17,1 °C 5,1 km/h (1 Bft)